Time;durP1;ratioP1;P1;durP2;ratioP2;P2;SDS_P1;SDS_P2;PMS_P1;PMS_P2;Temp;Humidity;BMP_temperature;BMP_pressure;BME280_temperature;BME280_humidity;BME280_pressure;Samples;Min_cycle;Max_cycle;Signal;HPM_P1;HPM_P2
2022/05/30 00:00:46;;;;;;;2.15;1.40;;;7.30;19.30;;;;;;5004219;28;36576;-78
2022/05/30 00:03:12;;;;;;;1.10;1.00;;;7.20;19.30;;;;;;5004545;28;36277;-77
2022/05/30 00:05:45;;;;;;;1.00;1.00;;;7.10;19.40;;;;;;4989598;28;34323;-78
2022/05/30 00:08:12;;;;;;;1.08;0.90;;;7.10;20.00;;;;;;5006519;28;34063;-77
2022/05/30 00:10:38;;;;;;;1.35;1.25;;;7.10;19.50;;;;;;4974405;28;36636;-77
2022/05/30 00:13:03;;;;;;;1.33;1.20;;;7.00;19.50;;;;;;4990770;28;34171;-78
2022/05/30 00:15:32;;;;;;;0.98;0.93;;;7.00;19.30;;;;;;4987291;28;34206;-79
2022/05/30 00:17:58;;;;;;;1.10;1.00;;;6.90;19.50;;;;;;5001186;28;34278;-78
2022/05/30 00:20:25;;;;;;;2.85;1.10;;;6.90;19.60;;;;;;5005117;28;36238;-77
2022/05/30 00:22:52;;;;;;;0.73;0.73;;;6.80;19.80;;;;;;5004955;28;34376;-77
2022/05/30 00:25:18;;;;;;;0.98;0.90;;;6.80;19.80;;;;;;5004989;28;34188;-77
2022/05/30 00:27:45;;;;;;;0.93;0.80;;;6.80;19.80;;;;;;5004200;28;34307;-79
2022/05/30 00:30:12;;;;;;;1.58;1.10;;;6.70;19.80;;;;;;4986873;28;36536;-78
2022/05/30 00:32:39;;;;;;;1.00;1.00;;;6.70;19.90;;;;;;4998276;28;34185;-78
2022/05/30 00:35:06;;;;;;;2.15;1.00;;;6.70;19.90;;;;;;5003471;28;34245;-79
2022/05/30 00:37:32;;;;;;;1.92;1.27;;;6.60;20.00;;;;;;5004826;28;34315;-79
2022/05/30 00:39:57;;;;;;;1.20;1.10;;;6.60;20.00;;;;;;5005416;28;34283;-78
2022/05/30 00:42:26;;;;;;;1.08;1.00;;;6.50;20.20;;;;;;5003954;28;34240;-77
2022/05/30 00:44:52;;;;;;;2.85;1.10;;;6.50;20.30;;;;;;4987645;28;34080;-77
2022/05/30 00:47:20;;;;;;;1.25;1.10;;;6.50;20.40;;;;;;5003455;28;34718;-77
2022/05/30 00:49:47;;;;;;;1.20;1.10;;;6.40;20.30;;;;;;4987044;28;36337;-77
2022/05/30 00:52:23;;;;;;;0.90;0.90;;;6.40;20.30;;;;;;5003732;28;34276;-77
2022/05/30 00:54:54;;;;;;;1.42;1.33;;;6.40;21.30;;;;;;4987268;28;34159;-77
2022/05/30 00:57:23;;;;;;;1.20;1.10;;;6.40;20.60;;;;;;5003297;28;34359;-78
2022/05/30 01:00:08;;;;;;;1.10;1.10;;;6.30;20.30;;;;;;5003103;28;36513;-78
2022/05/30 01:02:36;;;;;;;1.15;1.02;;;6.30;22.60;;;;;;5003119;28;34213;-77
2022/05/30 01:07:47;;;;;;;1.20;1.10;;;6.20;20.30;;;;;;4999291;28;34262;-77
2022/05/30 01:10:18;;;;;;;1.05;1.00;;;6.20;20.40;;;;;;4983435;28;34585;-77
2022/05/30 01:12:49;;;;;;;0.90;0.90;;;6.20;20.60;;;;;;4986560;28;34329;-77
2022/05/30 01:15:17;;;;;;;1.30;1.20;;;6.10;20.40;;;;;;4990076;28;34403;-77
2022/05/30 01:17:51;;;;;;;1.10;1.00;;;6.10;20.30;;;;;;4978780;28;34426;-76
2022/05/30 01:20:30;;;;;;;1.30;1.20;;;6.10;21.20;;;;;;4984369;28;34299;-78
2022/05/30 01:23:26;;;;;;;0.90;0.90;;;6.00;21.20;;;;;;4966840;28;34300;-77
2022/05/30 01:26:26;;;;;;;1.20;1.10;;;6.00;22.70;;;;;;4967065;28;34279;-78
2022/05/30 01:29:03;;;;;;;1.17;1.08;;;5.90;22.60;;;;;;4953268;28;34666;-78
2022/05/30 01:31:30;;;;;;;1.00;1.00;;;5.90;21.90;;;;;;4950665;28;35612;-77
2022/05/30 01:33:56;;;;;;;1.02;1.00;;;5.90;20.80;;;;;;4989724;28;34155;-77
2022/05/30 01:36:24;;;;;;;1.70;1.20;;;5.90;20.80;;;;;;4988111;28;34256;-77
2022/05/30 01:38:50;;;;;;;1.17;1.10;;;5.80;21.00;;;;;;4976995;28;34055;-77
2022/05/30 01:41:17;;;;;;;1.10;1.10;;;5.80;20.80;;;;;;4959692;28;35487;-77
2022/05/30 01:43:45;;;;;;;1.08;1.08;;;5.80;20.80;;;;;;4976740;28;34316;-77
2022/05/30 01:46:16;;;;;;;1.13;1.02;;;5.70;20.80;;;;;;4992512;28;34168;-76
2022/05/30 01:48:43;;;;;;;1.02;1.02;;;5.70;20.90;;;;;;4993972;28;34278;-77
2022/05/30 01:51:09;;;;;;;2.72;1.10;;;5.70;20.90;;;;;;4986072;28;36110;-78
2022/05/30 01:53:35;;;;;;;0.80;0.80;;;5.60;20.90;;;;;;4967037;28;34721;-77
2022/05/30 01:56:01;;;;;;;1.00;1.00;;;5.60;21.00;;;;;;4990092;28;34096;-77
2022/05/30 01:58:27;;;;;;;1.02;1.02;;;5.50;21.00;;;;;;4972896;28;34586;-77
2022/05/30 02:00:52;;;;;;;1.20;1.10;;;5.50;21.20;;;;;;4991327;28;34276;-77
2022/05/30 02:03:18;;;;;;;2.97;0.82;;;5.50;21.10;;;;;;4972735;28;34221;-77
2022/05/30 02:05:44;;;;;;;1.10;1.00;;;5.40;21.00;;;;;;4974213;28;34333;-77
2022/05/30 02:08:10;;;;;;;0.95;0.95;;;5.40;21.20;;;;;;4992690;28;34104;-77
2022/05/30 02:10:37;;;;;;;1.05;1.00;;;5.40;21.30;;;;;;4992159;28;36621;-77
2022/05/30 02:13:06;;;;;;;1.02;1.02;;;5.30;21.40;;;;;;5009392;28;34094;-77
2022/05/30 02:17:00;;;;;;;1.38;1.00;;;5.40;21.70;;;;;;4976355;28;34184;-78
2022/05/30 02:18:18;;;;;;;1.50;1.27;;;5.30;21.80;;;;;;5007703;28;34592;-77
2022/05/30 02:20:46;;;;;;;1.27;1.17;;;5.30;21.90;;;;;;5029510;28;35323;-76
2022/05/30 02:23:12;;;;;;;0.65;0.65;;;5.30;21.90;;;;;;5011480;28;34574;-77
2022/05/30 02:25:38;;;;;;;1.05;1.05;;;5.30;22.00;;;;;;4995740;28;34226;-77
2022/05/30 02:28:04;;;;;;;0.85;0.85;;;5.30;22.00;;;;;;5012345;28;34256;-77
2022/05/30 02:30:30;;;;;;;1.40;1.30;;;5.30;21.80;;;;;;5011872;28;35074;-75
2022/05/30 02:36:38;;;;;;;1.02;1.02;;;5.20;21.60;;;;;;4996545;28;34292;-77
2022/05/30 02:38:22;;;;;;;1.00;0.90;;;5.20;21.90;;;;;;5008784;28;34209;-76
2022/05/30 02:40:48;;;;;;;1.38;1.27;;;5.20;21.80;;;;;;4990917;28;36038;-77
2022/05/30 02:43:14;;;;;;;1.05;1.02;;;5.10;21.70;;;;;;4976030;28;34123;-76
2022/05/30 02:45:41;;;;;;;0.88;0.85;;;5.10;21.80;;;;;;5008275;28;34155;-76
2022/05/30 02:48:08;;;;;;;0.82;0.82;;;5.10;21.60;;;;;;4990808;28;34147;-77
2022/05/30 02:50:34;;;;;;;2.45;0.90;;;5.10;21.60;;;;;;4988850;28;35840;-76
2022/05/30 02:53:00;;;;;;;0.98;0.98;;;5.00;21.60;;;;;;4988845;28;34096;-76
2022/05/30 02:55:26;;;;;;;0.98;0.98;;;5.00;21.70;;;;;;5006124;28;34153;-76
2022/05/30 02:57:52;;;;;;;0.90;0.90;;;5.00;21.90;;;;;;4959749;28;34596;-76
2022/05/30 03:00:18;;;;;;;0.93;0.93;;;5.00;22.00;;;;;;5008088;28;36516;-76
2022/05/30 03:02:44;;;;;;;1.60;1.13;;;4.90;22.10;;;;;;5008526;28;34296;-76
2022/05/30 03:05:10;;;;;;;0.90;0.90;;;4.90;22.00;;;;;;5008664;28;34283;-75
2022/05/30 03:07:36;;;;;;;1.50;1.10;;;4.90;22.10;;;;;;5008451;28;34783;-76
2022/05/30 03:10:03;;;;;;;1.20;1.10;;;4.90;22.10;;;;;;5007862;28;35498;-76
2022/05/30 03:12:29;;;;;;;1.52;1.20;;;4.80;22.00;;;;;;4992730;28;34543;-76
2022/05/30 03:14:55;;;;;;;2.75;1.13;;;4.80;22.10;;;;;;5008608;28;34230;-76
2022/05/30 03:17:21;;;;;;;1.48;1.17;;;4.80;22.00;;;;;;5025553;28;34271;-77
2022/05/30 03:19:47;;;;;;;1.00;1.00;;;4.80;22.00;;;;;;5007683;28;36354;-76
2022/05/30 03:22:13;;;;;;;0.90;0.90;;;4.80;22.30;;;;;;5025697;28;34054;-76
2022/05/30 03:24:39;;;;;;;1.08;1.00;;;4.70;22.40;;;;;;4976420;28;34139;-76
2022/05/30 03:27:05;;;;;;;1.40;1.30;;;4.70;22.30;;;;;;4993077;28;34272;-77
2022/05/30 03:29:31;;;;;;;2.20;1.25;;;4.70;22.30;;;;;;5008588;28;35079;-77
2022/05/30 03:31:57;;;;;;;1.20;1.00;;;4.70;22.30;;;;;;4991889;28;34109;-76
2022/05/30 03:34:23;;;;;;;3.70;1.10;;;4.60;22.20;;;;;;5002196;28;34120;-76
2022/05/30 03:36:49;;;;;;;1.17;1.10;;;4.60;22.20;;;;;;5006203;28;34111;-77
2022/05/30 03:39:15;;;;;;;1.08;1.08;;;4.60;22.30;;;;;;4987751;28;35618;-76
2022/05/30 03:41:41;;;;;;;0.98;0.98;;;4.60;22.50;;;;;;4956608;28;34503;-77
2022/05/30 03:44:07;;;;;;;1.35;1.20;;;4.50;22.60;;;;;;4988612;28;34275;-80
2022/05/30 03:46:33;;;;;;;1.20;1.17;;;4.50;22.50;;;;;;4989492;28;34310;-76
2022/05/30 03:48:59;;;;;;;1.20;1.10;;;4.50;22.50;;;;;;4988164;28;35619;-76
2022/05/30 03:51:25;;;;;;;1.30;1.20;;;4.50;22.70;;;;;;4988460;28;34332;-76
2022/05/30 03:53:52;;;;;;;1.48;1.27;;;4.50;22.80;;;;;;4988532;28;34144;-76
2022/05/30 03:56:19;;;;;;;1.30;1.20;;;4.40;22.70;;;;;;4996963;28;34081;-77
2022/05/30 03:58:45;;;;;;;1.40;1.10;;;4.50;22.90;;;;;;5025398;28;34999;-76
2022/05/30 04:01:11;;;;;;;1.30;1.20;;;4.50;23.00;;;;;;5007159;28;34420;-76
2022/05/30 04:03:39;;;;;;;1.30;1.20;;;4.50;22.90;;;;;;5005694;28;34387;-76
2022/05/30 04:06:05;;;;;;;1.80;1.10;;;4.50;22.90;;;;;;4988650;28;34547;-76
2022/05/30 04:08:31;;;;;;;1.42;1.33;;;4.50;22.80;;;;;;5004534;28;35612;-77
2022/05/30 04:10:58;;;;;;;1.23;1.15;;;4.50;22.70;;;;;;4971492;28;34160;-77
2022/05/30 04:13:24;;;;;;;1.40;1.20;;;4.50;22.80;;;;;;5004575;28;34158;-77
2022/05/30 04:15:50;;;;;;;1.73;1.20;;;4.60;22.90;;;;;;4988325;28;34071;-76
2022/05/30 04:18:16;;;;;;;1.90;1.00;;;4.60;22.80;;;;;;5005028;28;34129;-76
2022/05/30 04:20:42;;;;;;;1.20;1.10;;;4.60;23.00;;;;;;5004124;28;34201;-76
2022/05/30 04:23:08;;;;;;;1.92;1.25;;;4.70;23.20;;;;;;4961897;28;34173;-76
2022/05/30 04:25:35;;;;;;;1.27;1.17;;;4.80;23.30;;;;;;4971649;28;34185;-77
2022/05/30 04:28:01;;;;;;;1.10;1.08;;;4.90;23.10;;;;;;5004639;28;34472;-76
2022/05/30 04:30:27;;;;;;;1.48;1.20;;;5.00;23.10;;;;;;4987427;28;34195;-76
2022/05/30 04:32:53;;;;;;;1.15;1.15;;;5.00;23.00;;;;;;4987500;28;34433;-76
2022/05/30 04:35:20;;;;;;;1.50;1.40;;;5.10;23.00;;;;;;5004989;28;34377;-76
2022/05/30 04:37:47;;;;;;;1.35;1.25;;;5.20;23.00;;;;;;4987121;28;35858;-76
2022/05/30 04:40:13;;;;;;;1.58;1.23;;;5.30;22.90;;;;;;4970488;28;34116;-76
2022/05/30 04:42:40;;;;;;;1.40;1.23;;;5.30;22.80;;;;;;4988020;28;34303;-75
2022/05/30 04:45:07;;;;;;;1.65;1.15;;;5.40;22.70;;;;;;5006185;28;34396;-75
2022/05/30 04:47:35;;;;;;;1.45;1.35;;;5.40;22.70;;;;;;4990112;28;35639;-75
2022/05/30 04:50:03;;;;;;;1.40;1.30;;;5.50;22.80;;;;;;5006077;28;34386;-76
2022/05/30 04:52:30;;;;;;;2.13;1.80;;;5.60;22.70;;;;;;5006429;28;34328;-75
2022/05/30 04:54:56;;;;;;;1.45;1.35;;;5.60;23.30;;;;;;5006618;28;34442;-76
2022/05/30 04:57:22;;;;;;;1.52;1.42;;;5.70;22.80;;;;;;5005998;28;35738;-76
2022/05/30 04:59:48;;;;;;;2.38;1.50;;;5.70;22.70;;;;;;4990185;28;34110;-76
2022/05/30 05:02:16;;;;;;;1.92;1.60;;;5.80;22.80;;;;;;4986805;28;34104;-77
2022/05/30 05:04:42;;;;;;;2.05;1.55;;;5.90;23.10;;;;;;5004178;28;34192;-76
2022/05/30 05:07:09;;;;;;;1.60;1.50;;;6.00;22.80;;;;;;4954277;28;36572;-76
2022/05/30 05:09:46;;;;;;;2.00;1.80;;;6.10;22.80;;;;;;4986533;28;34203;-76
2022/05/30 05:12:12;;;;;;;2.28;1.45;;;6.20;23.50;;;;;;4969349;28;34329;-75
2022/05/30 05:14:38;;;;;;;2.22;1.60;;;6.40;23.40;;;;;;4987235;28;34039;-76
2022/05/30 05:17:06;;;;;;;1.60;1.48;;;6.70;22.70;;;;;;4985823;28;36321;-76
2022/05/30 05:19:33;;;;;;;2.15;1.70;;;7.30;22.40;;;;;;5005991;28;34277;-77
2022/05/30 05:21:59;;;;;;;2.17;1.98;;;8.10;21.10;;;;;;5005964;28;34187;-77
2022/05/30 05:24:25;;;;;;;1.90;1.70;;;9.10;19.70;;;;;;5005989;28;34305;-77
2022/05/30 05:26:51;;;;;;;1.50;1.40;;;10.00;18.30;;;;;;4989455;28;35717;-77
2022/05/30 05:29:17;;;;;;;3.13;1.42;;;10.90;16.90;;;;;;5006045;28;34273;-77
2022/05/30 05:31:44;;;;;;;1.70;1.60;;;11.70;15.90;;;;;;5006193;28;34340;-78
2022/05/30 05:34:13;;;;;;;2.15;1.80;;;12.50;14.90;;;;;;4989879;28;34088;-78
2022/05/30 05:36:42;;;;;;;1.50;1.40;;;13.30;14.20;;;;;;5005897;28;36444;-78
2022/05/30 05:39:09;;;;;;;1.50;1.30;;;13.90;13.40;;;;;;4990019;28;34399;-78
2022/05/30 05:41:35;;;;;;;1.30;1.20;;;14.50;12.70;;;;;;5005926;28;34187;-78
2022/05/30 05:44:01;;;;;;;1.60;1.50;;;15.00;12.10;;;;;;5023774;28;34372;-78
2022/05/30 05:46:31;;;;;;;1.45;1.35;;;15.60;11.50;;;;;;5023887;28;34453;-79
2022/05/30 05:48:58;;;;;;;1.67;1.45;;;16.00;11.10;;;;;;5007422;28;34293;-80
2022/05/30 05:51:24;;;;;;;1.30;1.20;;;16.30;10.50;;;;;;5008244;28;34092;-79
2022/05/30 05:53:50;;;;;;;1.55;1.45;;;16.60;10.00;;;;;;4990912;28;34015;-79
2022/05/30 05:56:20;;;;;;;1.67;1.45;;;16.90;9.70;;;;;;4991220;28;35627;-80
2022/05/30 05:58:46;;;;;;;1.65;1.40;;;17.30;9.10;;;;;;5008549;28;34332;-79
2022/05/30 06:01:15;;;;;;;2.10;1.40;;;17.50;9.10;;;;;;5005807;28;34255;-80
2022/05/30 06:03:41;;;;;;;1.80;1.55;;;17.80;8.40;;;;;;5008053;28;34095;-79
2022/05/30 06:06:08;;;;;;;1.45;1.35;;;18.10;8.70;;;;;;5006312;28;35589;-80
2022/05/30 06:08:34;;;;;;;2.00;1.83;;;18.40;8.40;;;;;;4990528;28;34159;-79
2022/05/30 06:11:08;;;;;;;2.20;1.75;;;18.60;8.20;;;;;;5007586;28;34156;-78
2022/05/30 06:13:36;;;;;;;1.65;1.55;;;18.90;8.20;;;;;;4990598;28;34070;-81
2022/05/30 06:16:05;;;;;;;4.63;1.98;;;19.40;7.50;;;;;;4989159;28;36618;-79
2022/05/30 06:18:32;;;;;;;5.53;2.05;;;19.80;6.60;;;;;;5017080;28;34334;-78
2022/05/30 06:20:59;;;;;;;2.38;1.90;;;19.80;7.00;;;;;;5001204;28;34495;-79
2022/05/30 06:23:25;;;;;;;4.57;2.20;;;19.50;6.70;;;;;;5006800;28;34190;-80
2022/05/30 06:25:51;;;;;;;2.50;2.30;;;19.30;6.90;;;;;;5009619;28;35733;-78
2022/05/30 06:28:17;;;;;;;2.47;2.22;;;19.20;6.90;;;;;;5009362;28;34305;-79
2022/05/30 06:30:42;;;;;;;4.40;2.17;;;19.20;7.00;;;;;;5009704;28;34154;-79
2022/05/30 06:33:08;;;;;;;3.58;2.50;;;19.40;6.90;;;;;;4980005;28;34557;-82
2022/05/30 06:35:34;;;;;;;3.28;2.40;;;19.70;6.90;;;;;;4996330;28;35646;-79
2022/05/30 06:38:00;;;;;;;2.80;2.47;;;20.10;6.80;;;;;;5029288;28;34182;-79
2022/05/30 06:40:26;;;;;;;5.10;3.00;;;20.60;6.40;;;;;;5012438;28;33984;-80
2022/05/30 06:42:52;;;;;;;5.85;2.95;;;20.60;6.00;;;;;;4994612;28;34461;-80
2022/05/30 06:45:18;;;;;;;3.55;3.17;;;20.90;6.00;;;;;;4994359;28;35591;-80
2022/05/30 06:47:44;;;;;;;9.88;3.45;;;21.10;5.80;;;;;;4994918;28;34301;-80
2022/05/30 06:50:10;;;;;;;4.97;3.75;;;21.20;5.40;;;;;;4977532;28;34228;-77
2022/05/30 06:52:36;;;;;;;6.90;3.90;;;21.00;5.20;;;;;;5012156;28;33861;-80
2022/05/30 06:55:02;;;;;;;6.93;3.28;;;20.90;5.70;;;;;;4993548;28;35523;-80
2022/05/30 07:00:10;;;;;;;6.95;4.30;;;20.80;5.70;;;;;;4997789;28;34499;-79
2022/05/30 07:02:36;;;;;;;5.30;4.05;;;20.60;5.50;;;;;;4993035;28;34219;-81
2022/05/30 07:05:03;;;;;;;5.22;3.70;;;20.70;5.70;;;;;;4999839;28;35442;-81
2022/05/30 07:07:29;;;;;;;6.63;4.05;;;20.80;5.80;;;;;;4973518;28;34815;-80
2022/05/30 07:09:54;;;;;;;6.50;4.00;;;21.00;5.70;;;;;;4994816;28;34158;-81
2022/05/30 07:12:20;;;;;;;7.03;4.38;;;21.00;5.70;;;;;;5010826;28;34068;-81
2022/05/30 07:14:46;;;;;;;6.25;3.67;;;21.10;5.80;;;;;;5012888;28;35806;-80
2022/05/30 07:17:13;;;;;;;6.53;4.63;;;21.30;5.80;;;;;;5028509;28;34102;-79
2022/05/30 07:19:39;;;;;;;6.35;4.35;;;21.40;5.70;;;;;;5014339;28;34153;-82
2022/05/30 07:22:06;;;;;;;7.50;4.78;;;21.40;5.60;;;;;;5012371;28;34487;-82
2022/05/30 07:24:32;;;;;;;9.13;4.88;;;21.50;5.70;;;;;;5014401;28;35919;-79
2022/05/30 07:26:57;;;;;;;6.30;4.45;;;21.30;5.50;;;;;;5013633;28;34334;-82
2022/05/30 07:29:26;;;;;;;7.28;4.85;;;21.20;5.50;;;;;;5013071;28;33806;-81
2022/05/30 07:31:58;;;;;;;5.97;4.40;;;21.20;5.70;;;;;;4993034;28;34309;-82
2022/05/30 07:34:25;;;;;;;6.40;4.53;;;21.60;4.80;;;;;;4994254;28;36063;-84
2022/05/30 07:36:51;;;;;;;6.15;3.75;;;21.80;5.60;;;;;;4997075;28;34411;-81
2022/05/30 07:39:18;;;;;;;6.80;4.47;;;22.00;5.50;;;;;;4993308;28;34204;-82
2022/05/30 07:41:44;;;;;;;9.35;4.78;;;22.10;5.30;;;;;;4966354;28;34281;-81
2022/05/30 07:44:10;;;;;;;6.30;4.55;;;22.00;5.10;;;;;;5010939;28;35082;-78
2022/05/30 07:46:39;;;;;;;7.40;4.38;;;22.10;5.10;;;;;;4997170;28;34231;-82
2022/05/30 07:49:05;;;;;;;6.40;4.50;;;22.20;5.00;;;;;;4993024;28;34083;-80
2022/05/30 07:51:31;;;;;;;7.88;4.57;;;22.20;4.90;;;;;;4992417;28;34020;-83
2022/05/30 07:53:58;;;;;;;6.80;4.20;;;22.40;5.00;;;;;;5009068;28;35778;-78
2022/05/30 07:56:24;;;;;;;5.55;4.25;;;22.70;4.70;;;;;;4991822;28;34230;-80
2022/05/30 07:58:50;;;;;;;5.95;4.22;;;22.90;4.60;;;;;;4993799;28;34091;-81
2022/05/30 08:01:19;;;;;;;6.78;3.97;;;23.10;4.30;;;;;;5007833;28;34254;-82
2022/05/30 08:03:46;;;;;;;6.30;3.47;;;23.10;3.10;;;;;;4995480;28;35634;-82
2022/05/30 08:06:15;;;;;;;4.40;3.45;;;23.10;3.80;;;;;;5012634;28;34430;-81
2022/05/30 08:08:42;;;;;;;6.32;4.13;;;22.90;2.50;;;;;;5022390;28;34498;-82
2022/05/30 08:11:09;;;;;;;4.57;3.97;;;22.90;3.40;;;;;;4992699;28;34008;-81
2022/05/30 08:13:35;;;;;;;6.88;3.92;;;23.10;3.50;;;;;;4992906;28;36240;-76
2022/05/30 08:16:02;;;;;;;5.22;3.92;;;23.30;3.40;;;;;;4991931;28;34096;-79
2022/05/30 08:18:29;;;;;;;4.68;3.90;;;23.70;3.90;;;;;;4982760;28;34119;-81
2022/05/30 08:20:55;;;;;;;6.70;3.88;;;23.60;2.90;;;;;;4998139;28;34279;-80
2022/05/30 08:23:23;;;;;;;5.60;4.03;;;23.40;2.90;;;;;;5009216;28;36113;-81
2022/05/30 08:25:50;;;;;;;5.10;3.90;;;23.60;2.90;;;;;;5014808;28;34029;-80
2022/05/30 08:28:16;;;;;;;8.32;4.43;;;23.80;2.90;;;;;;5022990;28;34157;-78
2022/05/30 08:30:42;;;;;;;5.68;4.15;;;24.10;2.70;;;;;;4993602;28;34401;-81
2022/05/30 08:33:10;;;;;;;5.10;3.78;;;24.30;2.70;;;;;;5011174;28;34340;-86
2022/05/30 08:35:37;;;;;;;5.45;3.70;;;24.50;2.00;;;;;;4994033;28;34295;-80
2022/05/30 08:38:03;;;;;;;4.38;3.28;;;24.50;2.20;;;;;;5013337;28;34300;-84
2022/05/30 08:43:23;;;;;;;5.25;3.80;;;24.20;1.20;;;;;;4999813;28;34238;-82
2022/05/30 08:45:53;;;;;;;5.20;2.75;;;24.30;1.20;;;;;;4984593;28;34330;-80
2022/05/30 08:48:33;;;;;;;3.17;2.28;;;24.30;1.00;;;;;;5007532;28;34731;-82
2022/05/30 08:51:23;;;;;;;2.22;1.92;;;24.50;1.00;;;;;;4996545;28;34356;-79
2022/05/30 08:54:09;;;;;;;4.53;2.28;;;24.40;1.00;;;;;;5001965;28;36012;-79
2022/05/30 08:56:39;;;;;;;4.35;2.75;;;23.90;1.00;;;;;;5001019;28;34230;-80
2022/05/30 08:59:35;;;;;;;6.15;2.33;;;23.20;1.00;;;;;;5011845;28;34324;-81
2022/05/30 09:02:11;;;;;;;4.90;2.25;;;22.50;1.00;;;;;;5020996;28;34445;-82
2022/05/30 09:04:49;;;;;;;3.45;2.67;;;21.80;1.00;;;;;;5029735;28;34042;-82
2022/05/30 09:07:20;;;;;;;2.00;1.67;;;21.60;1.00;;;;;;4992734;28;34428;-82
2022/05/30 09:10:04;;;;;;;2.33;1.73;;;21.70;1.30;;;;;;5027087;28;34051;-78
2022/05/30 09:12:46;;;;;;;2.47;2.28;;;22.00;1.00;;;;;;5009271;28;34463;-80
2022/05/30 09:15:20;;;;;;;2.92;2.30;;;21.80;1.00;;;;;;4986039;28;35649;-79
2022/05/30 09:18:01;;;;;;;2.83;1.90;;;21.60;1.00;;;;;;5023892;28;34157;-80
2022/05/30 09:20:29;;;;;;;4.03;2.30;;;21.60;1.00;;;;;;4988017;28;34416;-80
2022/05/30 09:22:55;;;;;;;2.10;1.90;;;21.70;1.00;;;;;;4997359;28;34036;-81
2022/05/30 09:28:08;;;;;;;2.58;1.90;;;21.80;1.00;;;;;;5026424;28;34292;-84
2022/05/30 09:31:02;;;;;;;2.75;2.25;;;21.70;1.00;;;;;;4993971;28;34530;-81
2022/05/30 09:33:33;;;;;;;3.67;2.00;;;21.70;1.00;;;;;;5013156;28;34335;-81
2022/05/30 09:36:18;;;;;;;5.03;1.90;;;21.70;1.00;;;;;;5011495;28;35582;-82
2022/05/30 09:38:48;;;;;;;1.80;1.67;;;21.80;1.00;;;;;;5011893;28;34229;-79
2022/05/30 09:41:46;;;;;;;3.10;2.03;;;21.80;1.00;;;;;;5014032;28;34094;-82
2022/05/30 09:44:25;;;;;;;2.50;1.70;;;21.80;1.00;;;;;;5011424;28;34491;-80
2022/05/30 09:46:57;;;;;;;2.80;2.15;;;21.70;1.00;;;;;;4999228;28;35894;-82
2022/05/30 09:49:37;;;;;;;2.25;1.55;;;21.60;1.00;;;;;;5006139;28;34265;-81
2022/05/30 09:52:36;;;;;;;6.15;1.83;;;21.50;1.00;;;;;;4988579;28;34127;-81
2022/05/30 09:55:48;;;;;;;3.10;1.90;;;21.40;1.00;;;;;;5007352;28;34379;-80
2022/05/30 09:58:47;;;;;;;3.03;2.15;;;21.10;1.00;;;;;;4968084;28;35625;-82
2022/05/30 10:04:48;;;;;;;4.25;1.85;;;21.20;1.00;;;;;;4968427;28;34257;-77
2022/05/30 10:10:37;;;;;;;2.38;1.90;;;22.00;1.00;;;;;;4895033;29;34319;-77
2022/05/30 10:13:13;;;;;;;2.85;2.00;;;22.20;1.00;;;;;;4873160;29;34648;-79
2022/05/30 10:15:59;;;;;;;1.80;1.70;;;22.60;1.00;;;;;;4863506;29;34483;-80
2022/05/30 10:18:41;;;;;;;1.77;1.48;;;23.30;1.00;;;;;;4872946;29;34441;-78
2022/05/30 10:21:36;;;;;;;1.88;1.60;;;23.50;1.00;;;;;;4892270;29;36521;-78
2022/05/30 10:31:18;;;;;;;3.08;1.73;;;22.80;1.00;;;;;;4860326;29;34255;-79
2022/05/30 10:34:35;;;;;;;2.38;1.70;;;22.30;1.00;;;;;;4871640;29;34300;-77
2022/05/30 10:37:45;;;;;;;2.30;1.80;;;21.80;1.00;;;;;;4896858;29;34230;-80
2022/05/30 10:44:00;;;;;;;1.60;1.42;;;21.00;1.00;;;;;;4905813;29;34415;-77
2022/05/30 10:47:02;;;;;;;3.13;1.70;;;21.20;1.00;;;;;;4900935;28;34482;-77
2022/05/30 10:49:46;;;;;;;1.98;1.60;;;21.20;1.00;;;;;;4947351;28;34321;-77
2022/05/30 10:52:54;;;;;;;2.30;1.70;;;21.40;1.00;;;;;;4903207;29;34395;-78
2022/05/30 10:55:52;;;;;;;1.95;1.52;;;21.40;1.00;;;;;;4926564;29;34245;-79
2022/05/30 10:59:03;;;;;;;4.13;1.70;;;21.40;1.00;;;;;;4921828;28;36008;-81
2022/05/30 11:01:43;;;;;;;2.03;1.60;;;21.40;1.00;;;;;;4968143;28;34044;-77
2022/05/30 11:04:30;;;;;;;2.83;1.60;;;21.40;1.00;;;;;;4972510;28;34389;-80
2022/05/30 11:07:06;;;;;;;1.90;1.50;;;21.30;1.00;;;;;;5010634;28;34312;-79
2022/05/30 11:09:50;;;;;;;1.75;1.63;;;21.20;1.00;;;;;;4958955;28;35684;-80
2022/05/30 11:12:24;;;;;;;1.50;1.40;;;21.20;1.00;;;;;;4989618;28;34135;-79
2022/05/30 11:15:20;;;;;;;1.75;1.55;;;21.50;1.00;;;;;;4976775;28;34276;-80
2022/05/30 11:17:54;;;;;;;2.95;1.48;;;21.90;1.00;;;;;;4993467;28;34070;-81
2022/05/30 11:20:26;;;;;;;2.08;1.35;;;22.30;1.00;;;;;;4996441;28;36500;-79
2022/05/30 11:22:55;;;;;;;2.92;1.20;;;22.60;1.00;;;;;;4991683;28;34192;-77
2022/05/30 11:25:37;;;;;;;1.98;1.42;;;22.80;1.00;;;;;;5009981;28;34394;-80
2022/05/30 11:28:22;;;;;;;1.98;1.45;;;22.70;1.00;;;;;;4992050;28;34364;-77
2022/05/30 11:31:09;;;;;;;2.17;1.40;;;22.60;1.00;;;;;;4975042;28;36352;-78
2022/05/30 11:33:53;;;;;;;1.60;1.50;;;22.40;1.00;;;;;;5008316;28;34098;-79
2022/05/30 11:36:44;;;;;;;2.92;1.92;;;22.40;1.00;;;;;;4970673;28;34402;-81
2022/05/30 11:39:34;;;;;;;3.42;1.65;;;22.10;1.00;;;;;;4978089;28;34385;-79
2022/05/30 11:42:21;;;;;;;1.33;1.23;;;22.10;1.00;;;;;;4994534;28;35538;-79
2022/05/30 11:44:59;;;;;;;1.83;1.20;;;22.10;1.00;;;;;;4987875;28;34153;-79
2022/05/30 11:48:00;;;;;;;2.63;1.40;;;22.30;1.00;;;;;;4963091;28;34325;-79
2022/05/30 11:50:51;;;;;;;1.75;1.20;;;22.50;1.00;;;;;;4966891;28;34157;-77
2022/05/30 11:53:41;;;;;;;1.30;1.13;;;22.70;1.00;;;;;;4976148;28;36417;-78
2022/05/30 11:56:20;;;;;;;1.52;1.05;;;22.80;1.00;;;;;;4976256;28;34187;-80
2022/05/30 11:59:10;;;;;;;1.73;1.50;;;22.90;1.00;;;;;;5009498;28;34221;-80
2022/05/30 12:01:39;;;;;;;1.33;1.23;;;23.20;1.00;;;;;;4991419;28;34518;-79
2022/05/30 12:04:34;;;;;;;1.77;1.30;;;23.50;1.00;;;;;;5007503;28;35480;-79
2022/05/30 12:07:23;;;;;;;1.98;1.20;;;23.70;1.00;;;;;;4993109;28;34114;-81
2022/05/30 12:10:19;;;;;;;1.65;1.33;;;24.00;1.00;;;;;;4993228;28;34259;-79
2022/05/30 12:13:05;;;;;;;1.60;1.35;;;24.00;1.00;;;;;;4992830;28;34099;-81
2022/05/30 12:16:01;;;;;;;1.33;1.02;;;23.90;1.00;;;;;;5008586;28;34317;-78
2022/05/30 12:24:30;;;;;;;1.27;1.02;;;23.60;1.00;;;;;;5027921;28;34153;-78
2022/05/30 12:27:01;;;;;;;1.15;0.90;;;23.80;1.00;;;;;;4997403;28;35888;-81
2022/05/30 12:29:45;;;;;;;2.03;1.20;;;23.80;1.00;;;;;;5013595;28;33905;-76
2022/05/30 12:32:16;;;;;;;1.20;1.10;;;24.10;1.00;;;;;;4997999;28;34062;-79
2022/05/30 12:35:18;;;;;;;3.13;1.10;;;24.30;1.00;;;;;;5030430;28;34335;-77
2022/05/30 12:37:48;;;;;;;1.30;1.00;;;24.30;1.00;;;;;;4995474;28;36219;-80
2022/05/30 12:40:45;;;;;;;3.00;1.48;;;24.50;1.00;;;;;;4993643;28;34088;-82
2022/05/30 12:43:35;;;;;;;2.58;1.00;;;24.50;1.00;;;;;;5009605;28;34541;-81
2022/05/30 12:46:13;;;;;;;1.25;1.08;;;24.30;1.00;;;;;;5014693;28;34219;-79
2022/05/30 12:48:56;;;;;;;1.45;1.08;;;24.20;1.00;;;;;;4990582;28;35936;-81
2022/05/30 12:51:49;;;;;;;1.48;1.20;;;24.10;1.00;;;;;;5014227;28;33594;-80
2022/05/30 12:54:25;;;;;;;2.40;1.10;;;24.20;1.00;;;;;;4996181;28;33984;-78
2022/05/30 12:57:08;;;;;;;1.40;0.93;;;24.30;1.00;;;;;;4994850;28;34131;-79
2022/05/30 12:59:55;;;;;;;1.13;0.95;;;24.40;1.00;;;;;;5010501;28;35812;-78
2022/05/30 13:02:55;;;;;;;1.85;1.10;;;24.50;1.00;;;;;;5002289;28;34133;-81
2022/05/30 13:05:30;;;;;;;1.25;1.00;;;24.50;1.00;;;;;;4985538;28;34287;-78
2022/05/30 13:07:56;;;;;;;1.00;0.98;;;24.20;1.00;;;;;;4996551;28;34193;-79
2022/05/30 13:10:24;;;;;;;1.20;1.10;;;23.90;1.00;;;;;;4997506;28;35549;-82
2022/05/30 13:13:03;;;;;;;4.00;0.90;;;23.80;1.00;;;;;;5032413;28;34589;-83
2022/05/30 13:15:39;;;;;;;1.35;0.82;;;23.80;1.00;;;;;;4994895;28;34148;-81
2022/05/30 13:18:14;;;;;;;1.08;0.80;;;23.90;1.00;;;;;;5011056;28;34013;-79
2022/05/30 13:20:48;;;;;;;1.13;1.02;;;24.00;1.00;;;;;;5027460;28;34174;-78
2022/05/30 13:23:16;;;;;;;2.10;1.00;;;24.20;1.00;;;;;;5026166;28;34128;-77
2022/05/30 13:25:48;;;;;;;1.83;1.17;;;24.00;1.00;;;;;;5027582;28;33772;-79
2022/05/30 13:28:34;;;;;;;1.10;1.00;;;23.80;1.00;;;;;;5026365;28;34344;-77
2022/05/30 13:31:05;;;;;;;1.83;1.10;;;23.60;1.00;;;;;;5008113;28;35748;-79
2022/05/30 13:33:48;;;;;;;3.35;1.15;;;23.30;1.00;;;;;;5012126;28;34139;-80
2022/05/30 13:36:27;;;;;;;2.25;1.10;;;23.20;1.00;;;;;;5011848;28;34193;-79
2022/05/30 13:38:54;;;;;;;1.65;1.35;;;23.20;1.00;;;;;;5025999;28;34112;-78
2022/05/30 13:41:28;;;;;;;1.75;0.88;;;23.10;1.00;;;;;;4995799;28;35534;-78
2022/05/30 13:43:57;;;;;;;1.40;1.10;;;23.00;1.00;;;;;;5008427;28;34452;-79
2022/05/30 13:46:37;;;;;;;1.25;0.90;;;22.90;1.00;;;;;;5027898;28;34142;-80
2022/05/30 13:49:03;;;;;;;1.42;1.15;;;22.90;1.00;;;;;;4990870;28;34197;-78
2022/05/30 13:51:34;;;;;;;1.60;1.10;;;23.10;1.00;;;;;;5023655;28;34769;-77
2022/05/30 13:54:01;;;;;;;1.73;1.00;;;23.40;1.00;;;;;;4967283;28;34249;-79
2022/05/30 13:56:38;;;;;;;1.92;0.98;;;23.40;1.00;;;;;;4988809;28;34145;-80
2022/05/30 13:59:17;;;;;;;1.00;0.90;;;23.30;1.00;;;;;;5008184;28;34107;-79
2022/05/30 14:01:44;;;;;;;1.33;0.95;;;23.30;1.00;;;;;;5023947;28;35331;-77